createdAt,value
2018-07-14T00:00:56.958Z,1018.19
2018-07-14T00:01:56.933Z,1018.21
2018-07-14T00:02:56.908Z,1018.19
2018-07-14T00:03:56.883Z,1018.17
2018-07-14T00:04:56.861Z,1018.13
2018-07-14T00:05:56.834Z,1018.11
2018-07-14T00:06:56.807Z,1018.11
2018-07-14T00:07:56.780Z,1018.15
2018-07-14T00:08:56.753Z,1018.11
2018-07-14T00:09:56.756Z,1018.11
2018-07-14T00:10:56.703Z,1018.09
2018-07-14T00:11:56.680Z,1018.14
2018-07-14T00:12:56.653Z,1018.13
2018-07-14T00:13:56.640Z,1018.16
2018-07-14T00:14:56.603Z,1018.12
2018-07-14T00:15:56.576Z,1018.15
2018-07-14T00:16:56.550Z,1018.10
2018-07-14T00:17:56.525Z,1018.10
2018-07-14T00:18:56.504Z,1018.06
2018-07-14T00:19:56.474Z,1018.03
2018-07-14T00:20:56.447Z,1018.03
2018-07-14T00:21:56.438Z,1018.06
2018-07-14T00:22:56.397Z,1017.98
2018-07-14T00:23:56.379Z,1018.02
2018-07-14T00:24:56.348Z,1017.99
2018-07-14T00:25:56.326Z,1017.96
2018-07-14T00:26:56.298Z,1017.99
2018-07-14T00:27:56.271Z,1017.97
2018-07-14T00:28:56.244Z,1018.03
2018-07-14T00:29:56.219Z,1018.05
2018-07-14T00:30:56.194Z,1018.05
2018-07-14T00:31:56.170Z,1018.04
2018-07-14T00:32:56.144Z,1018.00
2018-07-14T00:33:56.119Z,1018.01
2018-07-14T00:34:56.094Z,1018.01
2018-07-14T00:35:56.071Z,1018.00
2018-07-14T00:36:56.043Z,1017.95
2018-07-14T00:37:56.018Z,1017.97
2018-07-14T00:38:55.992Z,1018.06
2018-07-14T00:39:55.964Z,1018.06
2018-07-14T00:40:55.939Z,1018.03
2018-07-14T00:41:55.913Z,1017.96
2018-07-14T00:42:55.888Z,1018.00
2018-07-14T00:43:55.869Z,1018.01
2018-07-14T00:44:55.838Z,1017.96
2018-07-14T00:45:55.814Z,1017.98
2018-07-14T00:46:55.788Z,1017.93
2018-07-14T00:47:55.759Z,1017.97
2018-07-14T00:48:55.740Z,1018.02
2018-07-14T00:49:55.711Z,1017.99
2018-07-14T00:50:55.684Z,1018.04
2018-07-14T00:51:55.659Z,1017.98
2018-07-14T00:52:55.634Z,1018.00
2018-07-14T00:53:55.608Z,1018.03
2018-07-14T00:54:55.582Z,1018.04
2018-07-14T00:55:55.560Z,1018.05
2018-07-14T00:56:55.534Z,1018.04
2018-07-14T00:57:55.509Z,1018.01
2018-07-14T00:58:55.482Z,1018.02
2018-07-14T00:59:55.459Z,1018.00
2018-07-14T01:00:55.430Z,1018.01
2018-07-14T01:01:55.404Z,1017.97
2018-07-14T01:02:55.379Z,1017.97
2018-07-14T01:03:55.386Z,1017.90
2018-07-14T01:04:55.331Z,1017.90
2018-07-14T01:05:55.304Z,1017.94
2018-07-14T01:06:55.280Z,1017.96
2018-07-14T01:07:55.251Z,1017.97
2018-07-14T01:08:55.226Z,1017.91
2018-07-14T01:09:55.201Z,1017.91
2018-07-14T01:10:55.175Z,1017.92
2018-07-14T01:11:55.153Z,1017.87
2018-07-14T01:12:55.125Z,1017.89
2018-07-14T01:13:55.099Z,1017.88
2018-07-14T01:14:55.078Z,1017.82
2018-07-14T01:15:55.051Z,1017.91
2018-07-14T01:16:55.031Z,1017.89
2018-07-14T01:17:55.135Z,1017.89
2018-07-14T01:18:54.970Z,1017.91
2018-07-14T01:19:54.951Z,1017.92
2018-07-14T01:20:54.921Z,1017.89
2018-07-14T01:21:54.905Z,1017.92
2018-07-14T01:22:54.880Z,1017.96
2018-07-14T01:23:54.845Z,1017.90
2018-07-14T01:24:54.824Z,1017.90
2018-07-14T01:25:54.799Z,1017.93
2018-07-14T01:26:54.770Z,1017.95
2018-07-14T01:27:54.742Z,1017.94
2018-07-14T01:28:54.718Z,1017.93
2018-07-14T01:29:54.700Z,1017.93
2018-07-14T01:30:54.664Z,1017.93
2018-07-14T01:31:54.641Z,1017.98
2018-07-14T01:32:54.615Z,1017.95
2018-07-14T01:33:54.591Z,1017.94
2018-07-14T01:34:54.564Z,1017.95
2018-07-14T01:35:54.541Z,1017.92
2018-07-14T01:36:54.510Z,1017.91
2018-07-14T01:37:54.486Z,1017.93
2018-07-14T01:38:54.460Z,1017.94
2018-07-14T01:39:54.435Z,1017.94
2018-07-14T01:40:54.408Z,1017.93
2018-07-14T01:41:54.383Z,1017.91
2018-07-14T01:42:54.357Z,1017.88
2018-07-14T01:43:54.337Z,1017.89
2018-07-14T01:44:54.307Z,1017.89
2018-07-14T01:45:54.282Z,1017.88
2018-07-14T01:46:54.258Z,1017.87
2018-07-14T01:47:54.232Z,1017.88
2018-07-14T01:48:54.206Z,1017.87
2018-07-14T01:49:54.181Z,1017.84
2018-07-14T01:50:54.152Z,1017.86
2018-07-14T01:51:54.131Z,1017.87
2018-07-14T01:52:54.105Z,1017.85
2018-07-14T01:53:54.078Z,1017.85
2018-07-14T01:54:54.054Z,1017.85
2018-07-14T01:55:54.036Z,1017.90
2018-07-14T01:56:54.010Z,1017.90
2018-07-14T01:57:53.976Z,1017.90
2018-07-14T01:58:53.952Z,1017.91
2018-07-14T01:59:53.924Z,1017.91
2018-07-14T02:00:53.907Z,1017.90
2018-07-14T02:01:53.875Z,1017.90
2018-07-14T02:02:53.849Z,1017.92
2018-07-14T02:03:53.825Z,1017.93
2018-07-14T02:04:53.798Z,1017.95
2018-07-14T02:05:53.777Z,1017.98
2018-07-14T02:06:53.747Z,1018.00
2018-07-14T02:07:53.720Z,1017.97
2018-07-14T02:08:53.692Z,1017.98
2018-07-14T02:09:53.669Z,1018.01
2018-07-14T02:10:53.644Z,1017.94
2018-07-14T02:11:53.626Z,1017.97
2018-07-14T02:12:53.596Z,1017.98
2018-07-14T02:13:53.568Z,1018.00
2018-07-14T02:14:53.544Z,1017.99
2018-07-14T02:15:53.524Z,1017.99
2018-07-14T02:16:53.491Z,1017.99
2018-07-14T02:17:53.465Z,1018.03
2018-07-14T02:18:53.441Z,1018.01
2018-07-14T02:19:54.268Z,1018.05
2018-07-14T02:20:53.392Z,1018.03
2018-07-14T02:21:53.364Z,1018.03
2018-07-14T02:22:53.341Z,1018.06
2018-07-14T02:23:53.313Z,1018.07
2018-07-14T02:24:53.287Z,1018.09
2018-07-14T02:25:53.263Z,1018.05
2018-07-14T02:26:53.238Z,1018.01
2018-07-14T02:27:53.221Z,1018.02
2018-07-14T02:28:53.189Z,1018.01
2018-07-14T02:29:53.162Z,1018.00
2018-07-14T02:30:53.137Z,1018.00
2018-07-14T02:31:53.113Z,1017.99
2018-07-14T02:32:53.089Z,1017.98
2018-07-14T02:33:53.063Z,1017.99
2018-07-14T02:34:53.040Z,1017.99
2018-07-14T02:35:53.012Z,1017.97
2018-07-14T02:36:52.985Z,1017.95
2018-07-14T02:37:52.962Z,1017.95
2018-07-14T02:38:52.936Z,1018.00
2018-07-14T02:39:52.913Z,1017.95
2018-07-14T02:40:52.888Z,1017.97
2018-07-14T02:41:52.863Z,1017.94
2018-07-14T02:42:52.842Z,1017.98
2018-07-14T02:43:52.812Z,1017.95
2018-07-14T02:44:52.795Z,1017.95
2018-07-14T02:45:52.764Z,1017.93
2018-07-14T02:46:52.743Z,1017.95
2018-07-14T02:47:52.710Z,1017.91
2018-07-14T02:48:52.684Z,1017.92
2018-07-14T02:49:52.660Z,1017.95
2018-07-14T02:50:52.640Z,1017.93
2018-07-14T02:51:52.611Z,1017.91
2018-07-14T02:52:52.584Z,1017.86
2018-07-14T02:53:52.562Z,1017.85
2018-07-14T02:54:52.537Z,1017.86
2018-07-14T02:55:52.515Z,1017.87
2018-07-14T02:56:52.494Z,1017.86
2018-07-14T02:57:52.461Z,1017.89
2018-07-14T02:58:52.433Z,1017.88
2018-07-14T02:59:52.444Z,1017.90
2018-07-14T03:00:52.382Z,1017.88
2018-07-14T03:01:52.379Z,1017.88
2018-07-14T03:02:52.333Z,1017.90
2018-07-14T03:03:52.309Z,1017.90
2018-07-14T03:04:52.284Z,1017.90
2018-07-14T03:05:52.259Z,1017.85
2018-07-14T03:06:52.236Z,1017.94
2018-07-14T03:07:52.238Z,1017.91
2018-07-14T03:08:52.180Z,1017.85
2018-07-14T03:09:52.157Z,1017.87
2018-07-14T03:10:52.132Z,1017.88
2018-07-14T03:11:52.113Z,1017.88
2018-07-14T03:12:52.122Z,1017.85
2018-07-14T03:13:52.061Z,1017.85
2018-07-14T03:14:52.034Z,1017.87
2018-07-14T03:15:52.007Z,1017.89
2018-07-14T03:16:51.987Z,1017.88
2018-07-14T03:17:51.958Z,1017.87
2018-07-14T03:18:51.929Z,1017.89
2018-07-14T03:19:51.912Z,1017.93
2018-07-14T03:20:51.881Z,1017.97
2018-07-14T03:21:51.858Z,1017.99
2018-07-14T03:22:51.843Z,1018.02
2018-07-14T03:23:51.806Z,1018.03
2018-07-14T03:24:51.786Z,1018.02
2018-07-14T03:25:51.756Z,1018.05
2018-07-14T03:26:51.729Z,1017.98
2018-07-14T03:27:51.711Z,1017.99
2018-07-14T03:28:51.690Z,1017.99
2018-07-14T03:29:51.657Z,1018.01
2018-07-14T03:30:51.638Z,1018.01
2018-07-14T03:31:51.609Z,1018.01
2018-07-14T03:32:51.785Z,1018.01
2018-07-14T03:33:51.557Z,1018.03
2018-07-14T03:34:51.739Z,1018.03
2018-07-14T03:35:51.508Z,1018.04
2018-07-14T03:36:51.481Z,1018.04
2018-07-14T03:37:51.467Z,1018.00
2018-07-14T03:38:51.432Z,1017.98
2018-07-14T03:39:51.414Z,1017.98
2018-07-14T03:40:51.383Z,1018.01
2018-07-14T03:41:51.393Z,1017.98
2018-07-14T03:42:51.334Z,1017.95
2018-07-14T03:43:51.308Z,1017.97
2018-07-14T03:44:51.281Z,1017.99
2018-07-14T03:45:51.266Z,1018.00
2018-07-14T03:46:51.235Z,1018.01
2018-07-14T03:47:51.208Z,1017.99
2018-07-14T03:48:51.183Z,1018.00
2018-07-14T03:49:51.159Z,1017.97
2018-07-14T03:50:51.134Z,1018.02
2018-07-14T03:51:51.126Z,1017.99
2018-07-14T03:52:51.085Z,1018.02
2018-07-14T03:53:51.064Z,1018.07
2018-07-14T03:54:51.038Z,1018.02
2018-07-14T03:55:51.010Z,1018.07
2018-07-14T03:56:51.006Z,1018.06
2018-07-14T03:57:50.961Z,1018.02
2018-07-14T03:58:50.937Z,1018.03
2018-07-14T03:59:50.922Z,1018.03
2018-07-14T04:00:50.890Z,1018.01
2018-07-14T04:01:50.864Z,1018.02
2018-07-14T04:02:50.844Z,1018.04
2018-07-14T04:03:50.817Z,1018.03
2018-07-14T04:04:50.790Z,1018.07
2018-07-14T04:05:50.768Z,1018.05
2018-07-14T04:06:50.944Z,1018.04
2018-07-14T04:07:50.715Z,1018.00
2018-07-14T04:08:50.690Z,1018.06
2018-07-14T04:09:50.665Z,1018.05
2018-07-14T04:10:50.642Z,1018.05
2018-07-14T04:11:50.619Z,1018.08
2018-07-14T04:12:50.594Z,1018.04
2018-07-14T04:13:50.573Z,1018.05
2018-07-14T04:14:50.601Z,1018.01
2018-07-14T04:15:50.740Z,1018.03
2018-07-14T04:16:50.696Z,1018.07
2018-07-14T04:17:50.671Z,1018.06
2018-07-14T04:18:50.444Z,1018.05
2018-07-14T04:19:50.423Z,1018.07
2018-07-14T04:20:50.396Z,1018.10
2018-07-14T04:21:50.370Z,1018.09
2018-07-14T04:22:50.353Z,1018.13
2018-07-14T04:23:50.326Z,1018.14
2018-07-14T04:24:50.298Z,1018.10
2018-07-14T04:25:50.274Z,1018.11
2018-07-14T04:26:50.249Z,1018.14
2018-07-14T04:27:50.224Z,1018.09
2018-07-14T04:28:50.198Z,1018.10
2018-07-14T04:29:50.180Z,1018.08
2018-07-14T04:30:50.150Z,1018.05
2018-07-14T04:31:50.185Z,1018.07
2018-07-14T04:32:50.106Z,1018.08
2018-07-14T04:33:50.078Z,1018.06
2018-07-14T04:34:50.055Z,1018.09
2018-07-14T04:35:50.031Z,1018.11
2018-07-14T04:36:50.005Z,1018.05
2018-07-14T04:37:49.981Z,1018.11
2018-07-14T04:38:49.961Z,1018.08
2018-07-14T04:39:49.932Z,1018.09
2018-07-14T04:40:49.909Z,1018.10
2018-07-14T04:41:49.881Z,1018.08
2018-07-14T04:42:49.858Z,1018.09
2018-07-14T04:43:49.840Z,1018.07
2018-07-14T04:44:49.810Z,1018.13
2018-07-14T04:45:49.792Z,1018.15
2018-07-14T04:46:49.763Z,1018.14
2018-07-14T04:47:49.736Z,1018.13
2018-07-14T04:48:49.712Z,1018.18
2018-07-14T04:49:49.688Z,1018.15
2018-07-14T04:50:49.665Z,1018.12
2018-07-14T04:51:49.640Z,1018.15
2018-07-14T04:52:49.620Z,1018.17
2018-07-14T04:53:49.590Z,1018.18
2018-07-14T04:54:49.579Z,1018.15
2018-07-14T04:55:49.545Z,1018.17
2018-07-14T04:56:49.527Z,1018.13
2018-07-14T04:57:49.496Z,1018.09
2018-07-14T04:58:49.473Z,1018.08
2018-07-14T04:59:49.448Z,1018.10
2018-07-14T05:00:49.424Z,1018.14
2018-07-14T05:01:49.407Z,1018.11
2018-07-14T05:02:49.375Z,1018.11
2018-07-14T05:03:49.354Z,1018.14
2018-07-14T05:04:49.330Z,1018.13
2018-07-14T05:05:49.306Z,1018.15
2018-07-14T05:06:49.280Z,1018.14
2018-07-14T05:07:49.258Z,1018.18
2018-07-14T05:08:49.235Z,1018.21
2018-07-14T05:09:49.210Z,1018.21
2018-07-14T05:10:49.187Z,1018.20
2018-07-14T05:11:49.162Z,1018.22
2018-07-14T05:12:49.137Z,1018.24
2018-07-14T05:13:49.113Z,1018.25
2018-07-14T05:14:49.090Z,1018.23
2018-07-14T05:15:49.070Z,1018.27
2018-07-14T05:16:49.044Z,1018.25
2018-07-14T05:17:49.020Z,1018.26
2018-07-14T05:18:48.998Z,1018.27
2018-07-14T05:19:48.973Z,1018.24
2018-07-14T05:20:48.949Z,1018.29
2018-07-14T05:21:48.929Z,1018.23
2018-07-14T05:22:48.902Z,1018.20
2018-07-14T05:23:48.879Z,1018.26
2018-07-14T05:24:48.858Z,1018.25
2018-07-14T05:25:48.836Z,1018.22
2018-07-14T05:26:48.810Z,1018.23
2018-07-14T05:27:48.791Z,1018.24
2018-07-14T05:28:48.761Z,1018.21
2018-07-14T05:29:48.738Z,1018.24
2018-07-14T05:30:48.715Z,1018.25
2018-07-14T05:31:48.693Z,1018.22
2018-07-14T05:32:48.671Z,1018.22
2018-07-14T05:33:48.656Z,1018.29
2018-07-14T05:34:48.624Z,1018.30
2018-07-14T05:35:48.608Z,1018.29
2018-07-14T05:36:48.575Z,1018.30
2018-07-14T05:37:48.551Z,1018.34
2018-07-14T05:38:48.533Z,1018.29
2018-07-14T05:39:48.506Z,1018.33
2018-07-14T05:40:48.482Z,1018.33
2018-07-14T05:41:48.462Z,1018.33
2018-07-14T05:42:48.436Z,1018.28
2018-07-14T05:43:48.416Z,1018.36
2018-07-14T05:44:48.392Z,1018.31
2018-07-14T05:45:48.368Z,1018.35
2018-07-14T05:46:48.346Z,1018.33
2018-07-14T05:47:48.321Z,1018.31
2018-07-14T05:48:48.297Z,1018.36
2018-07-14T05:49:48.274Z,1018.33
2018-07-14T05:50:48.251Z,1018.28
2018-07-14T05:51:48.230Z,1018.34
2018-07-14T05:52:48.208Z,1018.33
2018-07-14T05:53:48.183Z,1018.42
2018-07-14T05:54:48.160Z,1018.42
2018-07-14T05:55:48.136Z,1018.41
2018-07-14T05:56:48.143Z,1018.38
2018-07-14T05:57:48.095Z,1018.34
2018-07-14T05:58:48.067Z,1018.43
2018-07-14T05:59:48.042Z,1018.46
2018-07-14T06:00:48.017Z,1018.42
2018-07-14T06:01:47.994Z,1018.47
2018-07-14T06:02:47.973Z,1018.49
2018-07-14T06:03:47.951Z,1018.48
2018-07-14T06:04:47.925Z,1018.53
2018-07-14T06:05:47.908Z,1018.50
2018-07-14T06:06:47.879Z,1018.57
2018-07-14T06:07:47.894Z,1018.54
2018-07-14T06:08:47.829Z,1018.54
2018-07-14T06:09:47.805Z,1018.52
2018-07-14T06:10:47.792Z,1018.52
2018-07-14T06:11:47.760Z,1018.49
2018-07-14T06:12:47.736Z,1018.49
2018-07-14T06:13:47.713Z,1018.54
2018-07-14T06:14:47.689Z,1018.54
2018-07-14T06:15:47.668Z,1018.54
2018-07-14T06:16:47.651Z,1018.57
2018-07-14T06:17:47.626Z,1018.57
2018-07-14T06:18:47.599Z,1018.61
2018-07-14T06:19:47.575Z,1018.57
2018-07-14T06:20:47.550Z,1018.58
2018-07-14T06:21:47.526Z,1018.56
2018-07-14T06:22:47.504Z,1018.59
2018-07-14T06:23:47.483Z,1018.61
2018-07-14T06:24:47.457Z,1018.62
2018-07-14T06:25:47.436Z,1018.61
2018-07-14T06:26:47.615Z,1018.68
2018-07-14T06:27:47.396Z,1018.63
2018-07-14T06:28:47.366Z,1018.65
2018-07-14T06:29:47.385Z,1018.67
2018-07-14T06:30:47.320Z,1018.67
2018-07-14T06:31:47.297Z,1018.67
2018-07-14T06:32:47.271Z,1018.72
2018-07-14T06:33:47.250Z,1018.74
2018-07-14T06:34:47.227Z,1018.74
2018-07-14T06:35:47.206Z,1018.73
2018-07-14T06:36:47.184Z,1018.77
2018-07-14T06:37:47.164Z,1018.75
2018-07-14T06:38:47.138Z,1018.77
2018-07-14T06:39:47.116Z,1018.77
2018-07-14T06:40:47.090Z,1018.75
2018-07-14T06:41:47.071Z,1018.74
2018-07-14T06:42:47.248Z,1018.77
2018-07-14T06:43:47.225Z,1018.80
2018-07-14T06:44:47.265Z,1018.78
2018-07-14T06:45:47.181Z,1018.81
2018-07-14T06:46:46.961Z,1018.81
2018-07-14T06:47:46.938Z,1018.81
2018-07-14T06:48:46.913Z,1018.83
2018-07-14T06:49:46.889Z,1018.81
2018-07-14T06:50:46.869Z,1018.76
2018-07-14T06:51:46.843Z,1018.77
2018-07-14T06:52:46.826Z,1018.74
2018-07-14T06:53:46.809Z,1018.80
2018-07-14T06:54:46.777Z,1018.80
2018-07-14T06:55:46.757Z,1018.76
2018-07-14T06:56:46.734Z,1018.82
2018-07-14T06:57:46.712Z,1018.80
2018-07-14T06:58:46.690Z,1018.81
2018-07-14T06:59:46.669Z,1018.77
2018-07-14T07:00:46.646Z,1018.79
2018-07-14T07:01:46.634Z,1018.84
2018-07-14T07:02:46.615Z,1018.78
2018-07-14T07:03:46.581Z,1018.80
2018-07-14T07:04:46.555Z,1018.84
2018-07-14T07:05:46.534Z,1018.85
2018-07-14T07:06:46.512Z,1018.91
2018-07-14T07:07:46.493Z,1018.88
2018-07-14T07:08:46.469Z,1018.84
2018-07-14T07:09:46.447Z,1018.89
2018-07-14T07:10:46.428Z,1018.92
2018-07-14T07:11:46.407Z,1018.87
2018-07-14T07:12:46.381Z,1018.89
2018-07-14T07:13:46.493Z,1018.86
2018-07-14T07:14:46.340Z,1018.91
2018-07-14T07:15:46.315Z,1018.92
2018-07-14T07:16:46.293Z,1018.94
2018-07-14T07:17:46.276Z,1018.93
2018-07-14T07:18:46.247Z,1018.98
2018-07-14T07:19:46.228Z,1018.89
2018-07-14T07:20:46.207Z,1018.93
2018-07-14T07:21:46.184Z,1018.97
2018-07-14T07:22:46.162Z,1018.98
2018-07-14T07:23:46.139Z,1019.05
2018-07-14T07:24:46.123Z,1018.99
2018-07-14T07:25:46.095Z,1018.99
2018-07-14T07:26:46.071Z,1018.95
2018-07-14T07:27:46.053Z,1019.02
2018-07-14T07:28:46.067Z,1018.93
2018-07-14T07:29:46.008Z,1018.91
2018-07-14T07:30:45.987Z,1019.00
2018-07-14T07:31:45.964Z,1019.08
2018-07-14T07:32:45.940Z,1019.08
2018-07-14T07:33:45.923Z,1019.04
2018-07-14T07:34:45.987Z,1019.06
2018-07-14T07:35:45.878Z,1019.07
2018-07-14T07:36:45.858Z,1019.07
2018-07-14T07:37:45.833Z,1018.95
2018-07-14T07:38:45.875Z,1019.07
2018-07-14T07:39:45.787Z,1019.07
2018-07-14T07:40:45.763Z,1019.05
2018-07-14T07:41:45.745Z,1019.08
2018-07-14T07:42:45.723Z,1019.03
2018-07-14T07:43:45.702Z,1019.10
2018-07-14T07:44:45.676Z,1019.07
2018-07-14T07:45:45.654Z,1019.10
2018-07-14T07:46:45.632Z,1019.07
2018-07-14T07:47:45.610Z,1019.09
2018-07-14T07:48:45.585Z,1019.12
2018-07-14T07:49:45.564Z,1019.06
2018-07-14T07:50:45.547Z,1019.16
2018-07-14T07:51:45.518Z,1019.13
2018-07-14T07:52:45.496Z,1019.18
2018-07-14T07:53:45.473Z,1019.17
2018-07-14T07:54:45.451Z,1019.22
2018-07-14T07:55:45.429Z,1019.24
2018-07-14T07:56:45.405Z,1019.23
2018-07-14T07:57:45.383Z,1019.25
2018-07-14T07:58:45.361Z,1019.28
2018-07-14T07:59:45.337Z,1019.29
2018-07-14T08:00:45.313Z,1019.29
2018-07-14T08:01:45.291Z,1019.28
2018-07-14T08:02:45.270Z,1019.29
2018-07-14T08:03:45.249Z,1019.31
2018-07-14T08:04:45.224Z,1019.29
2018-07-14T08:05:45.202Z,1019.33
2018-07-14T08:06:45.184Z,1019.29
2018-07-14T08:07:45.160Z,1019.30
2018-07-14T08:08:45.193Z,1019.31
2018-07-14T08:09:45.116Z,1019.33
2018-07-14T08:10:45.095Z,1019.35
2018-07-14T08:11:45.071Z,1019.37
2018-07-14T08:12:45.057Z,1019.36
2018-07-14T08:13:45.027Z,1019.33
2018-07-14T08:14:45.009Z,1019.35
2018-07-14T08:15:44.987Z,1019.37
2018-07-14T08:16:44.963Z,1019.37
2018-07-14T08:17:44.949Z,1019.34
2018-07-14T08:18:44.924Z,1019.31
2018-07-14T08:19:44.902Z,1019.36
2018-07-14T08:20:44.887Z,1019.37
2018-07-14T08:21:44.855Z,1019.42
2018-07-14T08:22:44.902Z,1019.39
2018-07-14T08:23:44.812Z,1019.39
2018-07-14T08:24:44.791Z,1019.39
2018-07-14T08:25:44.767Z,1019.29
2018-07-14T08:26:44.746Z,1019.37
2018-07-14T08:27:44.728Z,1019.35
2018-07-14T08:28:44.703Z,1019.32
2018-07-14T08:29:44.682Z,1019.34
2018-07-14T08:30:44.661Z,1019.36
2018-07-14T08:31:44.637Z,1019.31
2018-07-14T08:32:44.618Z,1019.39
2018-07-14T08:33:44.597Z,1019.38
2018-07-14T08:34:44.575Z,1019.40
2018-07-14T08:35:44.554Z,1019.44
2018-07-14T08:36:44.530Z,1019.41
2018-07-14T08:37:44.510Z,1019.38
2018-07-14T08:38:44.491Z,1019.38
2018-07-14T08:39:44.471Z,1019.45
2018-07-14T08:40:44.449Z,1019.40
2018-07-14T08:41:44.424Z,1019.39
2018-07-14T08:42:44.404Z,1019.45
2018-07-14T08:43:44.433Z,1019.41
2018-07-14T08:44:44.359Z,1019.46
2018-07-14T08:45:44.337Z,1019.43
2018-07-14T08:46:44.316Z,1019.43
2018-07-14T08:47:44.297Z,1019.46
2018-07-14T08:48:44.273Z,1019.51
2018-07-14T08:49:44.258Z,1019.47
2018-07-14T08:50:44.233Z,1019.47
2018-07-14T08:51:44.212Z,1019.47
2018-07-14T08:52:44.194Z,1019.52
2018-07-14T08:53:44.168Z,1019.49
2018-07-14T08:54:44.146Z,1019.55
2018-07-14T08:55:44.124Z,1019.55
2018-07-14T08:56:44.102Z,1019.51
2018-07-14T08:57:44.081Z,1019.55
2018-07-14T08:58:44.061Z,1019.55
2018-07-14T08:59:44.041Z,1019.60
2018-07-14T09:00:44.020Z,1019.59
2018-07-14T09:01:43.999Z,1019.57
2018-07-14T09:02:43.985Z,1019.59
2018-07-14T09:03:43.992Z,1019.60
2018-07-14T09:04:43.939Z,1019.68
2018-07-14T09:05:43.914Z,1019.67
2018-07-14T09:06:43.912Z,1019.67
2018-07-14T09:07:43.872Z,1019.67
2018-07-14T09:08:43.852Z,1019.67
2018-07-14T09:09:43.831Z,1019.71
2018-07-14T09:10:43.820Z,1019.69
2018-07-14T09:11:43.796Z,1019.72
2018-07-14T09:12:43.773Z,1019.76
2018-07-14T09:13:43.752Z,1019.75
2018-07-14T09:14:43.732Z,1019.76
2018-07-14T09:15:43.709Z,1019.75
2018-07-14T09:16:43.892Z,1019.75
2018-07-14T09:17:43.675Z,1019.77
2018-07-14T09:18:43.650Z,1019.76
2018-07-14T09:19:43.635Z,1019.79
2018-07-14T09:20:43.813Z,1019.74
2018-07-14T09:21:43.593Z,1019.75
2018-07-14T09:22:43.573Z,1019.82
2018-07-14T09:23:43.553Z,1019.84
2018-07-14T09:24:43.535Z,1019.89
2018-07-14T09:25:43.717Z,1019.84
2018-07-14T09:26:43.696Z,1019.87
2018-07-14T09:28:25.833Z,1019.81
2018-07-14T09:29:25.611Z,1019.82
2018-07-14T09:30:25.592Z,1019.89
2018-07-14T09:31:25.835Z,1019.83
2018-07-14T09:32:25.606Z,1019.86
2018-07-14T09:33:25.543Z,1019.79
2018-07-14T09:34:25.518Z,1019.79
2018-07-14T09:35:25.703Z,1019.78
2018-07-14T09:36:25.483Z,1019.74
2018-07-14T09:37:25.462Z,1019.73
2018-07-14T09:38:25.446Z,1019.68
2018-07-14T09:39:25.427Z,1019.60
2018-07-14T09:40:25.612Z,1019.66
2018-07-14T09:41:25.591Z,1019.57
2018-07-14T09:42:25.370Z,1019.61
2018-07-14T09:43:25.350Z,1019.55
2018-07-14T09:44:25.333Z,1019.52
2018-07-14T09:45:25.314Z,1019.54
2018-07-14T09:46:25.294Z,1019.57
2018-07-14T09:47:25.274Z,1019.55
2018-07-14T09:48:25.258Z,1019.46
2018-07-14T09:49:25.238Z,1019.47
2018-07-14T09:50:25.217Z,1019.44
2018-07-14T09:51:25.199Z,1019.47
2018-07-14T09:52:25.183Z,1019.46
2018-07-14T09:53:25.162Z,1019.51
2018-07-14T09:54:25.145Z,1019.52
2018-07-14T09:55:25.122Z,1019.56
2018-07-14T09:56:25.103Z,1019.54
2018-07-14T09:57:25.084Z,1019.48
2018-07-14T09:58:25.268Z,1019.61
2018-07-14T09:59:25.054Z,1019.65
2018-07-14T10:00:25.228Z,1019.66
2018-07-14T10:01:25.006Z,1019.62
2018-07-14T10:02:24.986Z,1019.64
2018-07-14T10:03:25.033Z,1019.64
2018-07-14T10:04:24.954Z,1019.63
2018-07-14T10:05:24.930Z,1019.61
2018-07-14T10:06:24.914Z,1019.65
2018-07-14T10:07:24.896Z,1019.65
2018-07-14T10:08:24.873Z,1019.58
2018-07-14T10:09:24.855Z,1019.58
2018-07-14T10:10:24.853Z,1019.47
2018-07-14T10:11:24.824Z,1019.56
2018-07-14T10:12:24.801Z,1019.56
2018-07-14T10:13:24.983Z,1019.60
2018-07-14T10:14:24.763Z,1019.55
2018-07-14T10:15:24.747Z,1019.63
2018-07-14T10:16:24.727Z,1019.61
2018-07-14T10:17:24.959Z,1019.56
2018-07-14T10:18:24.688Z,1019.53
2018-07-14T10:19:24.667Z,1019.53
2018-07-14T10:20:24.648Z,1019.55
2018-07-14T10:21:24.628Z,1019.53
2018-07-14T10:22:24.632Z,1019.42
2018-07-14T10:23:24.593Z,1019.44
2018-07-14T10:24:24.575Z,1019.36
2018-07-14T10:25:24.728Z,1019.28
2018-07-14T10:26:24.536Z,1019.35
2018-07-14T10:27:24.520Z,1019.25
2018-07-14T10:28:24.499Z,1019.28
2018-07-14T10:29:24.486Z,1019.21
2018-07-14T10:30:24.460Z,1019.25
2018-07-14T10:31:24.440Z,1019.24
2018-07-14T10:32:24.419Z,1019.24
2018-07-14T10:33:24.409Z,1019.27
2018-07-14T10:34:24.380Z,1019.28
2018-07-14T10:35:24.360Z,1019.25
2018-07-14T10:36:24.339Z,1019.21
2018-07-14T10:37:24.321Z,1019.27
2018-07-14T10:38:24.299Z,1019.27
2018-07-14T10:39:24.281Z,1019.19
2018-07-14T10:40:24.259Z,1019.22
2018-07-14T10:41:24.238Z,1019.22
2018-07-14T10:42:24.258Z,1019.27
2018-07-14T10:43:24.197Z,1019.29
2018-07-14T10:44:24.177Z,1019.30
2018-07-14T10:45:24.157Z,1019.31
2018-07-14T10:46:24.136Z,1019.27
2018-07-14T10:47:24.322Z,1019.23
2018-07-14T10:48:24.096Z,1019.23
2018-07-14T10:49:24.275Z,1019.18
2018-07-14T10:50:24.060Z,1019.15
2018-07-14T10:51:24.099Z,1019.15
2018-07-14T10:52:24.016Z,1019.12
2018-07-14T10:53:23.995Z,1019.05
2018-07-14T10:54:23.974Z,1019.08
2018-07-14T10:55:23.956Z,1019.04
2018-07-14T10:56:24.134Z,1019.07
2018-07-14T10:57:24.111Z,1019.09
2018-07-14T10:58:24.100Z,1019.08
2018-07-14T10:59:23.873Z,1019.05
2018-07-14T11:00:23.850Z,1019.08
2018-07-14T11:01:23.831Z,1019.16
2018-07-14T11:02:23.811Z,1019.20
2018-07-14T11:03:23.798Z,1019.22
2018-07-14T11:04:23.779Z,1019.28
2018-07-14T11:05:23.948Z,1019.34
2018-07-14T11:06:23.726Z,1019.35
2018-07-14T11:07:23.704Z,1019.34
2018-07-14T11:08:23.688Z,1019.34
2018-07-14T11:09:23.661Z,1019.34
2018-07-14T11:10:23.640Z,1019.35
2018-07-14T11:11:23.622Z,1019.21
2018-07-14T11:12:23.602Z,1019.32
2018-07-14T11:13:23.581Z,1019.28
2018-07-14T11:14:23.610Z,1019.26
2018-07-14T11:15:23.538Z,1019.16
2018-07-14T11:16:23.529Z,1019.21
2018-07-14T11:17:23.504Z,1019.17
2018-07-14T11:18:23.477Z,1019.16
2018-07-14T11:19:23.474Z,1019.12
2018-07-14T11:20:23.437Z,1019.12
2018-07-14T11:21:23.416Z,1019.06
2018-07-14T11:22:23.396Z,1018.99
2018-07-14T11:23:23.377Z,1019.00
2018-07-14T11:24:23.358Z,1019.03
2018-07-14T11:25:23.338Z,1018.96
2018-07-14T11:26:23.316Z,1019.03
2018-07-14T11:27:23.295Z,1018.96
2018-07-14T11:28:23.273Z,1018.94
2018-07-14T11:29:23.252Z,1019.05
2018-07-14T11:30:23.233Z,1018.99
2018-07-14T11:31:23.216Z,1019.03
2018-07-14T11:32:23.201Z,1019.01
2018-07-14T11:33:23.172Z,1019.03
2018-07-14T11:34:23.207Z,1019.05
2018-07-14T11:35:23.130Z,1019.04
2018-07-14T11:36:23.110Z,1019.03
2018-07-14T11:37:23.088Z,1019.15
2018-07-14T11:38:23.069Z,1019.13
2018-07-14T11:39:23.045Z,1019.17
2018-07-14T11:40:23.026Z,1019.14
2018-07-14T11:41:23.003Z,1019.20
2018-07-14T11:42:22.981Z,1019.23
2018-07-14T11:43:22.967Z,1019.24
2018-07-14T11:44:22.942Z,1019.25
2018-07-14T11:45:22.921Z,1019.22
2018-07-14T11:46:22.900Z,1019.24
2018-07-14T11:47:22.891Z,1019.23
2018-07-14T11:48:22.861Z,1019.27
2018-07-14T11:49:22.834Z,1019.29
2018-07-14T11:50:22.814Z,1019.25
2018-07-14T11:51:22.794Z,1019.23
2018-07-14T11:52:22.776Z,1019.20
2018-07-14T11:53:22.752Z,1019.24
2018-07-14T11:54:22.766Z,1019.24
2018-07-14T11:55:22.714Z,1019.25
2018-07-14T11:56:22.693Z,1019.25
2018-07-14T11:57:22.671Z,1019.23
2018-07-14T11:58:22.652Z,1019.26
2018-07-14T11:59:22.665Z,1019.27
2018-07-14T12:00:22.610Z,1019.28
2018-07-14T12:01:22.620Z,1019.23
2018-07-14T12:02:22.573Z,1019.25
2018-07-14T12:03:22.552Z,1019.28
2018-07-14T12:04:22.531Z,1019.32
2018-07-14T12:05:22.511Z,1019.35
2018-07-14T12:06:22.493Z,1019.25